Terminal Aerodrome Forecast
Issued by NWS Binghamton, NY

Home | Current Version | Previous Version | Text Only | Print | Product List | Glossary On
Versions: 1 2 3 4 5 6 7 8 9 10 11 12 13 14 15 16 17 18 19 20 21 22 23
532
FTUS41 KBGM 110539
TAFBGM
TAF
KBGM 110539Z 1106/1206 24005KT P6SM BKN060
     FM111900 17008KT P6SM OVC035
      TEMPO 1119/1122 2SM -SN OVC020
     FM112200 17009KT 1SM -SN OVC010
     FM120300 17011KT 2SM -SN OVC008=

USA.gov is the U.S. government's official web portal to all federal, state and local government web resources and services.